sensor_id;sensor_type;location;lat;lon;timestamp;pressure;altitude;pressure_sealevel;temperature;humidity
27864;BME280;15980;51.092;13.916;2024-03-17T00:08:47;99304.53;;;3.89;96.77
27864;BME280;15980;51.092;13.916;2024-03-17T00:18:48;99305.31;;;3.89;97.37
27864;BME280;15980;51.092;13.916;2024-03-17T00:28:48;99303.19;;;3.86;97.60
27864;BME280;15980;51.092;13.916;2024-03-17T00:38:48;99309.16;;;3.83;96.86
27864;BME280;15980;51.092;13.916;2024-03-17T00:48:49;99318.41;;;3.82;97.60
27864;BME280;15980;51.092;13.916;2024-03-17T00:58:49;99312.16;;;3.82;97.52
27864;BME280;15980;51.092;13.916;2024-03-17T01:08:49;99301.75;;;3.55;97.91
27864;BME280;15980;51.092;13.916;2024-03-17T01:18:50;99309.69;;;3.36;97.62
27864;BME280;15980;51.092;13.916;2024-03-17T01:28:50;99304.59;;;3.19;98.54
27864;BME280;15980;51.092;13.916;2024-03-17T01:38:50;99312.25;;;3.07;99.36
27864;BME280;15980;51.092;13.916;2024-03-17T01:48:51;99305.22;;;2.96;98.97
27864;BME280;15980;51.092;13.916;2024-03-17T01:58:51;99306.34;;;2.84;99.32
27864;BME280;15980;51.092;13.916;2024-03-17T02:08:53;99307.69;;;2.82;100.00
27864;BME280;15980;51.092;13.916;2024-03-17T02:18:54;99305.22;;;3.06;100.00
27864;BME280;15980;51.092;13.916;2024-03-17T02:28:55;99307.13;;;2.90;100.00
27864;BME280;15980;51.092;13.916;2024-03-17T02:38:55;99301.19;;;2.78;100.00
27864;BME280;15980;51.092;13.916;2024-03-17T02:48:55;99295.00;;;2.62;100.00
27864;BME280;15980;51.092;13.916;2024-03-17T02:58:55;99299.88;;;2.50;100.00
27864;BME280;15980;51.092;13.916;2024-03-17T03:08:56;99299.06;;;2.44;100.00
27864;BME280;15980;51.092;13.916;2024-03-17T03:18:56;99293.94;;;2.28;100.00
27864;BME280;15980;51.092;13.916;2024-03-17T03:28:56;99294.22;;;2.21;100.00
27864;BME280;15980;51.092;13.916;2024-03-17T03:38:57;99299.63;;;2.26;100.00
27864;BME280;15980;51.092;13.916;2024-03-17T03:48:57;99310.72;;;2.45;100.00
27864;BME280;15980;51.092;13.916;2024-03-17T03:58:57;99308.28;;;2.53;100.00
27864;BME280;15980;51.092;13.916;2024-03-17T04:08:57;99298.22;;;2.79;100.00
27864;BME280;15980;51.092;13.916;2024-03-17T04:18:58;99300.88;;;2.95;100.00
27864;BME280;15980;51.092;13.916;2024-03-17T04:28:58;99316.34;;;2.89;100.00
27864;BME280;15980;51.092;13.916;2024-03-17T04:38:58;99321.78;;;2.79;100.00
27864;BME280;15980;51.092;13.916;2024-03-17T04:48:59;99321.50;;;2.91;100.00
27864;BME280;15980;51.092;13.916;2024-03-17T04:58:59;99322.84;;;2.88;99.90
27864;BME280;15980;51.092;13.916;2024-03-17T05:08:59;99318.53;;;2.77;98.46
27864;BME280;15980;51.092;13.916;2024-03-17T05:19:00;99339.69;;;2.70;99.62
27864;BME280;15980;51.092;13.916;2024-03-17T05:29:00;99345.06;;;3.05;99.40
27864;BME280;15980;51.092;13.916;2024-03-17T05:39:00;99353.38;;;3.34;98.20
27864;BME280;15980;51.092;13.916;2024-03-17T05:49:01;99360.84;;;3.63;96.45
27864;BME280;15980;51.092;13.916;2024-03-17T05:59:01;99371.09;;;3.76;94.89
27864;BME280;15980;51.092;13.916;2024-03-17T06:09:01;99378.88;;;3.98;93.37
27864;BME280;15980;51.092;13.916;2024-03-17T06:19:02;99385.31;;;4.12;91.17
27864;BME280;15980;51.092;13.916;2024-03-17T06:29:02;99393.88;;;4.29;88.64
27864;BME280;15980;51.092;13.916;2024-03-17T06:39:03;99395.78;;;4.34;87.09
27864;BME280;15980;51.092;13.916;2024-03-17T06:49:03;99405.44;;;4.06;88.90
27864;BME280;15980;51.092;13.916;2024-03-17T06:59:03;99411.19;;;3.99;89.58
27864;BME280;15980;51.092;13.916;2024-03-17T07:09:04;99419.78;;;4.12;89.07
27864;BME280;15980;51.092;13.916;2024-03-17T07:19:04;99427.56;;;4.28;87.42
27864;BME280;15980;51.092;13.916;2024-03-17T07:29:04;99435.63;;;4.44;84.65
27864;BME280;15980;51.092;13.916;2024-03-17T07:39:05;99442.22;;;4.71;82.97
27864;BME280;15980;51.092;13.916;2024-03-17T07:49:05;99447.41;;;4.68;80.99
27864;BME280;15980;51.092;13.916;2024-03-17T07:59:05;99444.59;;;4.83;79.03
27864;BME280;15980;51.092;13.916;2024-03-17T08:09:07;99448.13;;;5.13;76.59
27864;BME280;15980;51.092;13.916;2024-03-17T08:19:07;99441.59;;;5.43;76.34
27864;BME280;15980;51.092;13.916;2024-03-17T08:29:07;99447.09;;;5.90;75.43
27864;BME280;15980;51.092;13.916;2024-03-17T08:39:07;99452.88;;;6.08;73.20
27864;BME280;15980;51.092;13.916;2024-03-17T08:49:08;99440.00;;;6.70;69.70
27864;BME280;15980;51.092;13.916;2024-03-17T08:59:08;99447.72;;;6.81;68.19
27864;BME280;15980;51.092;13.916;2024-03-17T09:09:08;99438.59;;;7.37;67.48
27864;BME280;15980;51.092;13.916;2024-03-17T09:19:09;99419.00;;;7.63;66.04
27864;BME280;15980;51.092;13.916;2024-03-17T09:29:09;99411.88;;;7.34;64.00
27864;BME280;15980;51.092;13.916;2024-03-17T09:39:09;99420.00;;;7.67;62.91
27864;BME280;15980;51.092;13.916;2024-03-17T09:49:15;99422.63;;;7.99;61.43
27864;BME280;15980;51.092;13.916;2024-03-17T09:59:15;99416.53;;;8.30;59.33
27864;BME280;15980;51.092;13.916;2024-03-17T10:09:16;99408.84;;;8.18;59.15
27864;BME280;15980;51.092;13.916;2024-03-17T10:29:32;99404.78;;;8.29;55.08
27864;BME280;15980;51.092;13.916;2024-03-17T10:39:33;99397.38;;;8.66;54.02
27864;BME280;15980;51.092;13.916;2024-03-17T10:49:35;99395.34;;;8.71;54.30
27864;BME280;15980;51.092;13.916;2024-03-17T10:59:39;99379.69;;;9.17;54.19
27864;BME280;15980;51.092;13.916;2024-03-17T11:09:40;99383.13;;;9.00;52.76
27864;BME280;15980;51.092;13.916;2024-03-17T11:19:40;99389.22;;;8.52;53.32
27864;BME280;15980;51.092;13.916;2024-03-17T11:29:41;99372.22;;;9.08;52.95
27864;BME280;15980;51.092;13.916;2024-03-17T11:40:25;99372.81;;;9.59;52.97
27864;BME280;15980;51.092;13.916;2024-03-17T11:50:26;99352.22;;;9.87;50.96
27864;BME280;15980;51.092;13.916;2024-03-17T12:00:26;99356.47;;;10.02;49.79
27864;BME280;15980;51.092;13.916;2024-03-17T12:10:27;99358.03;;;9.06;50.88
27864;BME280;15980;51.092;13.916;2024-03-17T12:20:27;99329.16;;;9.71;50.51
27864;BME280;15980;51.092;13.916;2024-03-17T12:30:27;99324.72;;;9.53;50.84
27864;BME280;15980;51.092;13.916;2024-03-17T12:40:27;99345.66;;;8.56;52.58
27864;BME280;15980;51.092;13.916;2024-03-17T12:50:28;99307.78;;;9.42;53.36
27864;BME280;15980;51.092;13.916;2024-03-17T13:00:28;99303.19;;;9.60;51.91
27864;BME280;15980;51.092;13.916;2024-03-17T13:10:30;99299.75;;;9.06;54.04
27864;BME280;15980;51.092;13.916;2024-03-17T13:20:31;99286.44;;;8.82;54.42
27864;BME280;15980;51.092;13.916;2024-03-17T13:30:32;99298.78;;;9.02;54.48
27864;BME280;15980;51.092;13.916;2024-03-17T13:40:34;99277.59;;;8.85;54.45
27864;BME280;15980;51.092;13.916;2024-03-17T13:50:35;99284.66;;;8.10;55.71
27864;BME280;15980;51.092;13.916;2024-03-17T14:00:35;99275.19;;;8.16;54.12
27864;BME280;15980;51.092;13.916;2024-03-17T14:10:35;99259.91;;;8.60;52.98
27864;BME280;15980;51.092;13.916;2024-03-17T14:20:36;99254.25;;;8.79;53.02
27864;BME280;15980;51.092;13.916;2024-03-17T14:30:36;99254.75;;;8.59;53.51
27864;BME280;15980;51.092;13.916;2024-03-17T14:40:36;99261.31;;;8.27;53.24
27864;BME280;15980;51.092;13.916;2024-03-17T14:50:37;99246.41;;;8.95;51.78
27864;BME280;15980;51.092;13.916;2024-03-17T15:00:37;99254.47;;;9.00;51.39
27864;BME280;15980;51.092;13.916;2024-03-17T15:10:37;99243.38;;;8.96;51.69
27864;BME280;15980;51.092;13.916;2024-03-17T15:20:38;99242.34;;;8.84;50.40
27864;BME280;15980;51.092;13.916;2024-03-17T15:30:38;99248.28;;;8.77;51.03
27864;BME280;15980;51.092;13.916;2024-03-17T15:40:39;99237.81;;;8.79;50.02
27864;BME280;15980;51.092;13.916;2024-03-17T15:50:39;99242.56;;;8.65;51.66
27864;BME280;15980;51.092;13.916;2024-03-17T16:00:39;99242.00;;;8.45;51.71
27864;BME280;15980;51.092;13.916;2024-03-17T16:10:40;99228.53;;;8.13;53.13
27864;BME280;15980;51.092;13.916;2024-03-17T16:20:57;99248.50;;;8.13;54.40
27864;BME280;15980;51.092;13.916;2024-03-17T16:30:58;99248.00;;;7.89;55.53
27864;BME280;15980;51.092;13.916;2024-03-17T16:40:59;99237.44;;;7.60;57.09
27864;BME280;15980;51.092;13.916;2024-03-17T16:51:00;99232.66;;;7.16;58.88
27864;BME280;15980;51.092;13.916;2024-03-17T17:01:00;99238.22;;;6.83;60.43
27864;BME280;15980;51.092;13.916;2024-03-17T17:11:00;99248.09;;;6.52;62.30
27864;BME280;15980;51.092;13.916;2024-03-17T17:21:01;99246.47;;;6.18;63.93
27864;BME280;15980;51.092;13.916;2024-03-17T17:31:01;99249.06;;;5.91;64.92
27864;BME280;15980;51.092;13.916;2024-03-17T17:41:03;99238.66;;;5.55;66.15
27864;BME280;15980;51.092;13.916;2024-03-17T17:51:10;99229.53;;;5.27;69.18
27864;BME280;15980;51.092;13.916;2024-03-17T18:01:12;99233.91;;;5.04;70.60
27864;BME280;15980;51.092;13.916;2024-03-17T18:11:20;99230.56;;;4.89;73.05
27864;BME280;15980;51.092;13.916;2024-03-17T18:21:21;99223.94;;;4.71;74.91
27864;BME280;15980;51.092;13.916;2024-03-17T18:31:21;99230.06;;;4.58;74.58
27864;BME280;15980;51.092;13.916;2024-03-17T18:41:21;99235.72;;;4.37;75.58
27864;BME280;15980;51.092;13.916;2024-03-17T18:51:21;99234.06;;;4.07;75.68
27864;BME280;15980;51.092;13.916;2024-03-17T19:01:22;99239.13;;;3.85;77.34
27864;BME280;15980;51.092;13.916;2024-03-17T19:11:22;99224.41;;;3.57;78.42
27864;BME280;15980;51.092;13.916;2024-03-17T19:21:22;99230.25;;;3.30;79.37
27864;BME280;15980;51.092;13.916;2024-03-17T19:31:23;99214.09;;;3.10;78.83
27864;BME280;15980;51.092;13.916;2024-03-17T19:41:23;99230.16;;;2.91;79.14
27864;BME280;15980;51.092;13.916;2024-03-17T19:51:24;99233.47;;;2.78;79.64
27864;BME280;15980;51.092;13.916;2024-03-17T20:01:24;99225.09;;;2.59;80.31
27864;BME280;15980;51.092;13.916;2024-03-17T20:11:25;99235.72;;;2.35;80.67
27864;BME280;15980;51.092;13.916;2024-03-17T20:21:25;99228.97;;;2.23;81.59
27864;BME280;15980;51.092;13.916;2024-03-17T20:31:25;99233.03;;;2.10;82.25
27864;BME280;15980;51.092;13.916;2024-03-17T20:41:26;99229.25;;;1.91;83.06
27864;BME280;15980;51.092;13.916;2024-03-17T20:51:26;99224.38;;;1.77;83.49
27864;BME280;15980;51.092;13.916;2024-03-17T21:01:26;99218.66;;;1.64;84.34
27864;BME280;15980;51.092;13.916;2024-03-17T21:11:27;99227.03;;;1.52;84.37
27864;BME280;15980;51.092;13.916;2024-03-17T21:21:27;99218.91;;;1.42;84.55
27864;BME280;15980;51.092;13.916;2024-03-17T21:31:27;99222.66;;;1.25;84.98
27864;BME280;15980;51.092;13.916;2024-03-17T21:41:28;99208.00;;;1.06;85.22
27864;BME280;15980;51.092;13.916;2024-03-17T21:51:28;99209.31;;;0.93;85.37
27864;BME280;15980;51.092;13.916;2024-03-17T22:01:28;99200.03;;;0.74;85.61
27864;BME280;15980;51.092;13.916;2024-03-17T22:11:28;99204.06;;;0.67;87.09
27864;BME280;15980;51.092;13.916;2024-03-17T22:21:29;99195.91;;;0.51;86.81
27864;BME280;15980;51.092;13.916;2024-03-17T22:31:29;99192.38;;;0.46;86.99
27864;BME280;15980;51.092;13.916;2024-03-17T22:41:30;99200.72;;;0.44;87.63
27864;BME280;15980;51.092;13.916;2024-03-17T22:51:30;99200.19;;;0.47;87.08
27864;BME280;15980;51.092;13.916;2024-03-17T23:01:30;99187.69;;;0.36;86.33
27864;BME280;15980;51.092;13.916;2024-03-17T23:11:31;99181.97;;;0.22;85.79
27864;BME280;15980;51.092;13.916;2024-03-17T23:21:31;99188.16;;;0.18;87.03
27864;BME280;15980;51.092;13.916;2024-03-17T23:31:31;99175.16;;;0.15;87.19
27864;BME280;15980;51.092;13.916;2024-03-17T23:41:32;99183.78;;;0.12;86.33
27864;BME280;15980;51.092;13.916;2024-03-17T23:51:32;99179.19;;;0.07;86.51
